sensor_id;sensor_type;location;lat;lon;timestamp;temperature;humidity
81031;SHT31;70513;51.984;5.648;2023-06-10T00:01:16;23.0;49.4
81031;SHT31;70513;51.984;5.648;2023-06-10T00:03:46;23.0;49.9
81031;SHT31;70513;51.984;5.648;2023-06-10T00:06:14;23.0;49.6
81031;SHT31;70513;51.984;5.648;2023-06-10T00:08:45;23.0;49.6
81031;SHT31;70513;51.984;5.648;2023-06-10T00:11:13;22.9;49.5
81031;SHT31;70513;51.984;5.648;2023-06-10T00:13:42;22.9;49.5
81031;SHT31;70513;51.984;5.648;2023-06-10T00:16:11;22.9;49.3
81031;SHT31;70513;51.984;5.648;2023-06-10T00:18:40;22.9;49.7
81031;SHT31;70513;51.984;5.648;2023-06-10T00:21:10;22.8;49.5
81031;SHT31;70513;51.984;5.648;2023-06-10T00:23:39;22.8;49.1
81031;SHT31;70513;51.984;5.648;2023-06-10T00:26:08;22.8;49.8
81031;SHT31;70513;51.984;5.648;2023-06-10T00:28:39;22.8;49.5
81031;SHT31;70513;51.984;5.648;2023-06-10T00:31:07;22.8;50.0
81031;SHT31;70513;51.984;5.648;2023-06-10T00:33:36;22.8;49.7
81031;SHT31;70513;51.984;5.648;2023-06-10T00:36:05;22.8;48.8
81031;SHT31;70513;51.984;5.648;2023-06-10T00:38:34;22.8;48.4
81031;SHT31;70513;51.984;5.648;2023-06-10T00:41:03;22.8;49.2
81031;SHT31;70513;51.984;5.648;2023-06-10T00:43:31;22.8;49.1
81031;SHT31;70513;51.984;5.648;2023-06-10T00:46:00;22.8;48.3
81031;SHT31;70513;51.984;5.648;2023-06-10T00:48:29;22.8;48.3
81031;SHT31;70513;51.984;5.648;2023-06-10T00:51:00;22.8;48.7
81031;SHT31;70513;51.984;5.648;2023-06-10T00:53:28;22.8;48.2
81031;SHT31;70513;51.984;5.648;2023-06-10T00:55:58;22.8;48.5
81031;SHT31;70513;51.984;5.648;2023-06-10T00:58:27;22.7;47.1
81031;SHT31;70513;51.984;5.648;2023-06-10T01:00:57;22.7;48.0
81031;SHT31;70513;51.984;5.648;2023-06-10T01:03:26;22.7;47.7
81031;SHT31;70513;51.984;5.648;2023-06-10T01:06:04;22.7;47.4
81031;SHT31;70513;51.984;5.648;2023-06-10T01:08:43;22.7;47.1
81031;SHT31;70513;51.984;5.648;2023-06-10T01:11:23;22.7;47.3
81031;SHT31;70513;51.984;5.648;2023-06-10T01:13:55;22.7;48.3
81031;SHT31;70513;51.984;5.648;2023-06-10T01:16:25;22.7;46.2
81031;SHT31;70513;51.984;5.648;2023-06-10T01:18:54;22.6;46.3
81031;SHT31;70513;51.984;5.648;2023-06-10T01:21:25;22.6;46.8
81031;SHT31;70513;51.984;5.648;2023-06-10T01:23:55;22.6;45.9
81031;SHT31;70513;51.984;5.648;2023-06-10T01:26:29;22.6;46.1
81031;SHT31;70513;51.984;5.648;2023-06-10T01:29:04;22.6;47.0
81031;SHT31;70513;51.984;5.648;2023-06-10T01:31:42;22.6;46.7
81031;SHT31;70513;51.984;5.648;2023-06-10T01:34:14;22.6;45.8
81031;SHT31;70513;51.984;5.648;2023-06-10T01:36:47;22.6;46.2
81031;SHT31;70513;51.984;5.648;2023-06-10T01:39:17;22.5;46.7
81031;SHT31;70513;51.984;5.648;2023-06-10T01:41:49;22.5;46.8
81031;SHT31;70513;51.984;5.648;2023-06-10T01:44:20;22.5;46.2
81031;SHT31;70513;51.984;5.648;2023-06-10T01:46:50;22.5;46.1
81031;SHT31;70513;51.984;5.648;2023-06-10T01:49:18;22.5;46.2
81031;SHT31;70513;51.984;5.648;2023-06-10T01:51:50;22.4;46.0
81031;SHT31;70513;51.984;5.648;2023-06-10T01:54:18;22.4;46.1
81031;SHT31;70513;51.984;5.648;2023-06-10T01:56:47;22.4;46.4
81031;SHT31;70513;51.984;5.648;2023-06-10T01:59:15;22.4;46.5
81031;SHT31;70513;51.984;5.648;2023-06-10T02:01:44;22.3;47.6
81031;SHT31;70513;51.984;5.648;2023-06-10T02:04:12;22.3;46.7
81031;SHT31;70513;51.984;5.648;2023-06-10T02:06:41;22.3;46.7
81031;SHT31;70513;51.984;5.648;2023-06-10T02:09:10;22.3;45.8
81031;SHT31;70513;51.984;5.648;2023-06-10T02:11:38;22.3;46.0
81031;SHT31;70513;51.984;5.648;2023-06-10T02:14:07;22.2;46.5
81031;SHT31;70513;51.984;5.648;2023-06-10T02:16:35;22.2;46.2
81031;SHT31;70513;51.984;5.648;2023-06-10T02:19:04;22.2;46.2
81031;SHT31;70513;51.984;5.648;2023-06-10T02:21:33;22.2;46.5
81031;SHT31;70513;51.984;5.648;2023-06-10T02:24:03;22.1;46.3
81031;SHT31;70513;51.984;5.648;2023-06-10T02:26:32;22.1;46.9
81031;SHT31;70513;51.984;5.648;2023-06-10T02:29:00;22.1;46.4
81031;SHT31;70513;51.984;5.648;2023-06-10T02:31:29;22.1;46.6
81031;SHT31;70513;51.984;5.648;2023-06-10T02:33:59;22.1;46.5
81031;SHT31;70513;51.984;5.648;2023-06-10T02:36:29;22.0;47.5
81031;SHT31;70513;51.984;5.648;2023-06-10T02:38:58;22.0;46.8
81031;SHT31;70513;51.984;5.648;2023-06-10T02:41:26;22.0;46.8
81031;SHT31;70513;51.984;5.648;2023-06-10T02:43:55;22.0;47.5
81031;SHT31;70513;51.984;5.648;2023-06-10T02:46:23;22.0;47.5
81031;SHT31;70513;51.984;5.648;2023-06-10T02:48:54;22.0;47.5
81031;SHT31;70513;51.984;5.648;2023-06-10T02:51:22;21.9;47.4
81031;SHT31;70513;51.984;5.648;2023-06-10T02:53:51;21.9;47.8
81031;SHT31;70513;51.984;5.648;2023-06-10T02:56:19;21.9;47.6
81031;SHT31;70513;51.984;5.648;2023-06-10T02:58:48;21.9;48.1
81031;SHT31;70513;51.984;5.648;2023-06-10T03:01:18;21.9;48.0
81031;SHT31;70513;51.984;5.648;2023-06-10T03:03:47;21.8;48.2
81031;SHT31;70513;51.984;5.648;2023-06-10T03:06:16;21.8;48.5
81031;SHT31;70513;51.984;5.648;2023-06-10T03:08:45;21.8;48.8
81031;SHT31;70513;51.984;5.648;2023-06-10T03:11:16;21.8;48.8
81031;SHT31;70513;51.984;5.648;2023-06-10T03:13:45;21.7;48.8
81031;SHT31;70513;51.984;5.648;2023-06-10T03:16:14;21.7;48.8
81031;SHT31;70513;51.984;5.648;2023-06-10T03:18:42;21.7;49.1
81031;SHT31;70513;51.984;5.648;2023-06-10T03:21:13;21.7;49.0
81031;SHT31;70513;51.984;5.648;2023-06-10T03:23:42;21.7;48.9
81031;SHT31;70513;51.984;5.648;2023-06-10T03:26:10;21.6;49.7
81031;SHT31;70513;51.984;5.648;2023-06-10T03:28:41;21.6;50.4
81031;SHT31;70513;51.984;5.648;2023-06-10T03:31:11;21.6;50.2
81031;SHT31;70513;51.984;5.648;2023-06-10T03:33:40;21.6;49.5
81031;SHT31;70513;51.984;5.648;2023-06-10T03:36:10;21.6;50.0
81031;SHT31;70513;51.984;5.648;2023-06-10T03:38:39;21.5;49.7
81031;SHT31;70513;51.984;5.648;2023-06-10T03:41:07;21.5;49.9
81031;SHT31;70513;51.984;5.648;2023-06-10T03:43:37;21.5;49.8
81031;SHT31;70513;51.984;5.648;2023-06-10T03:46:07;21.5;50.0
81031;SHT31;70513;51.984;5.648;2023-06-10T03:48:36;21.4;50.6
81031;SHT31;70513;51.984;5.648;2023-06-10T03:51:05;21.4;50.5
81031;SHT31;70513;51.984;5.648;2023-06-10T03:53:33;21.4;50.0
81031;SHT31;70513;51.984;5.648;2023-06-10T03:56:02;21.4;50.7
81031;SHT31;70513;51.984;5.648;2023-06-10T03:58:30;21.3;50.7
81031;SHT31;70513;51.984;5.648;2023-06-10T04:00:59;21.3;50.8
81031;SHT31;70513;51.984;5.648;2023-06-10T04:03:28;21.3;50.7
81031;SHT31;70513;51.984;5.648;2023-06-10T04:05:56;21.3;51.7
81031;SHT31;70513;51.984;5.648;2023-06-10T04:08:25;21.3;51.0
81031;SHT31;70513;51.984;5.648;2023-06-10T04:10:54;21.3;51.5
81031;SHT31;70513;51.984;5.648;2023-06-10T04:13:23;21.2;51.6
81031;SHT31;70513;51.984;5.648;2023-06-10T04:15:54;21.2;51.2
81031;SHT31;70513;51.984;5.648;2023-06-10T04:18:25;21.2;51.6
81031;SHT31;70513;51.984;5.648;2023-06-10T04:20:53;21.2;51.6
81031;SHT31;70513;51.984;5.648;2023-06-10T04:23:23;21.1;51.7
81031;SHT31;70513;51.984;5.648;2023-06-10T04:25:52;21.1;51.6
81031;SHT31;70513;51.984;5.648;2023-06-10T04:28:21;21.1;51.6
81031;SHT31;70513;51.984;5.648;2023-06-10T04:30:50;21.1;52.0
81031;SHT31;70513;51.984;5.648;2023-06-10T04:33:18;21.1;51.7
81031;SHT31;70513;51.984;5.648;2023-06-10T04:35:47;21.0;51.8
81031;SHT31;70513;51.984;5.648;2023-06-10T04:38:15;21.0;52.4
81031;SHT31;70513;51.984;5.648;2023-06-10T04:40:44;21.0;52.1
81031;SHT31;70513;51.984;5.648;2023-06-10T04:43:12;21.0;52.4
81031;SHT31;70513;51.984;5.648;2023-06-10T04:45:42;21.0;52.6
81031;SHT31;70513;51.984;5.648;2023-06-10T04:48:11;21.0;52.5
81031;SHT31;70513;51.984;5.648;2023-06-10T04:50:40;21.0;52.5
81031;SHT31;70513;51.984;5.648;2023-06-10T04:53:08;21.0;52.7
81031;SHT31;70513;51.984;5.648;2023-06-10T04:55:37;21.0;53.5
81031;SHT31;70513;51.984;5.648;2023-06-10T04:58:05;21.0;53.3
81031;SHT31;70513;51.984;5.648;2023-06-10T05:00:34;21.0;53.2
81031;SHT31;70513;51.984;5.648;2023-06-10T05:03:02;21.0;53.8
81031;SHT31;70513;51.984;5.648;2023-06-10T05:05:31;21.0;53.7
81031;SHT31;70513;51.984;5.648;2023-06-10T05:07:59;21.0;53.2
81031;SHT31;70513;51.984;5.648;2023-06-10T05:10:28;21.0;54.2
81031;SHT31;70513;51.984;5.648;2023-06-10T05:12:58;21.0;53.3
81031;SHT31;70513;51.984;5.648;2023-06-10T05:15:27;21.0;53.6
81031;SHT31;70513;51.984;5.648;2023-06-10T05:17:57;21.0;53.3
81031;SHT31;70513;51.984;5.648;2023-06-10T05:20:26;21.0;54.1
81031;SHT31;70513;51.984;5.648;2023-06-10T05:22:55;21.0;53.8
81031;SHT31;70513;51.984;5.648;2023-06-10T05:25:28;21.1;54.8
81031;SHT31;70513;51.984;5.648;2023-06-10T05:27:59;21.1;54.9
81031;SHT31;70513;51.984;5.648;2023-06-10T05:30:28;21.1;55.3
81031;SHT31;70513;51.984;5.648;2023-06-10T05:32:57;21.1;55.5
81031;SHT31;70513;51.984;5.648;2023-06-10T05:35:26;21.1;55.0
81031;SHT31;70513;51.984;5.648;2023-06-10T05:37:54;21.1;55.1
81031;SHT31;70513;51.984;5.648;2023-06-10T05:40:23;21.2;55.7
81031;SHT31;70513;51.984;5.648;2023-06-10T05:42:53;21.2;55.2
81031;SHT31;70513;51.984;5.648;2023-06-10T05:45:22;21.2;55.5
81031;SHT31;70513;51.984;5.648;2023-06-10T05:47:50;21.2;55.2
81031;SHT31;70513;51.984;5.648;2023-06-10T05:50:19;21.2;55.1
81031;SHT31;70513;51.984;5.648;2023-06-10T05:52:47;21.2;54.5
81031;SHT31;70513;51.984;5.648;2023-06-10T05:55:16;21.3;55.5
81031;SHT31;70513;51.984;5.648;2023-06-10T05:57:44;21.3;56.7
81031;SHT31;70513;51.984;5.648;2023-06-10T06:00:14;21.3;55.9
81031;SHT31;70513;51.984;5.648;2023-06-10T06:02:43;21.4;54.8
81031;SHT31;70513;51.984;5.648;2023-06-10T06:05:11;21.4;54.5
81031;SHT31;70513;51.984;5.648;2023-06-10T06:07:40;21.4;56.1
81031;SHT31;70513;51.984;5.648;2023-06-10T06:10:09;21.4;55.6
81031;SHT31;70513;51.984;5.648;2023-06-10T06:12:37;21.5;54.8
81031;SHT31;70513;51.984;5.648;2023-06-10T06:15:09;21.5;55.7
81031;SHT31;70513;51.984;5.648;2023-06-10T06:17:38;21.5;54.9
81031;SHT31;70513;51.984;5.648;2023-06-10T06:20:07;21.6;55.8
81031;SHT31;70513;51.984;5.648;2023-06-10T06:22:36;21.6;55.9
81031;SHT31;70513;51.984;5.648;2023-06-10T06:25:06;21.6;55.8
81031;SHT31;70513;51.984;5.648;2023-06-10T06:27:34;21.7;56.2
81031;SHT31;70513;51.984;5.648;2023-06-10T06:30:03;21.7;57.0
81031;SHT31;70513;51.984;5.648;2023-06-10T06:32:32;21.8;53.8
81031;SHT31;70513;51.984;5.648;2023-06-10T06:35:01;21.8;53.7
81031;SHT31;70513;51.984;5.648;2023-06-10T06:37:32;21.9;55.4
81031;SHT31;70513;51.984;5.648;2023-06-10T06:40:01;21.9;54.8
81031;SHT31;70513;51.984;5.648;2023-06-10T06:42:30;22.0;55.2
81031;SHT31;70513;51.984;5.648;2023-06-10T06:44:59;22.0;53.7
81031;SHT31;70513;51.984;5.648;2023-06-10T06:47:27;22.1;54.2
81031;SHT31;70513;51.984;5.648;2023-06-10T06:49:56;22.1;52.8
81031;SHT31;70513;51.984;5.648;2023-06-10T06:52:24;22.2;53.1
81031;SHT31;70513;51.984;5.648;2023-06-10T06:54:53;22.3;53.1
81031;SHT31;70513;51.984;5.648;2023-06-10T06:57:21;22.3;53.8
81031;SHT31;70513;51.984;5.648;2023-06-10T06:59:51;22.4;53.6
81031;SHT31;70513;51.984;5.648;2023-06-10T07:02:20;22.5;53.1
81031;SHT31;70513;51.984;5.648;2023-06-10T07:04:49;22.6;53.0
81031;SHT31;70513;51.984;5.648;2023-06-10T07:07:20;22.8;53.1
81031;SHT31;70513;51.984;5.648;2023-06-10T07:09:48;22.9;54.4
81031;SHT31;70513;51.984;5.648;2023-06-10T07:12:17;23.0;55.4
81031;SHT31;70513;51.984;5.648;2023-06-10T07:14:45;23.1;55.7
81031;SHT31;70513;51.984;5.648;2023-06-10T07:17:14;23.2;52.3
81031;SHT31;70513;51.984;5.648;2023-06-10T07:19:42;23.3;52.4
81031;SHT31;70513;51.984;5.648;2023-06-10T07:22:11;23.4;52.1
81031;SHT31;70513;51.984;5.648;2023-06-10T07:24:40;23.5;52.1
81031;SHT31;70513;51.984;5.648;2023-06-10T07:27:09;23.6;51.2
81031;SHT31;70513;51.984;5.648;2023-06-10T07:29:38;23.7;51.4
81031;SHT31;70513;51.984;5.648;2023-06-10T07:32:07;23.8;52.5
81031;SHT31;70513;51.984;5.648;2023-06-10T07:34:36;23.9;51.5
81031;SHT31;70513;51.984;5.648;2023-06-10T07:37:05;24.0;50.8
81031;SHT31;70513;51.984;5.648;2023-06-10T07:39:35;24.1;52.7
81031;SHT31;70513;51.984;5.648;2023-06-10T07:42:04;24.3;48.0
81031;SHT31;70513;51.984;5.648;2023-06-10T07:44:33;24.4;50.1
81031;SHT31;70513;51.984;5.648;2023-06-10T07:47:01;24.4;49.8
81031;SHT31;70513;51.984;5.648;2023-06-10T07:49:30;24.5;47.9
81031;SHT31;70513;51.984;5.648;2023-06-10T07:51:58;24.6;48.1
81031;SHT31;70513;51.984;5.648;2023-06-10T07:54:28;24.6;48.1
81031;SHT31;70513;51.984;5.648;2023-06-10T07:56:57;24.8;50.4
81031;SHT31;70513;51.984;5.648;2023-06-10T07:59:26;24.9;47.5
81031;SHT31;70513;51.984;5.648;2023-06-10T08:01:54;25.1;48.0
81031;SHT31;70513;51.984;5.648;2023-06-10T08:04:23;25.1;47.6
81031;SHT31;70513;51.984;5.648;2023-06-10T08:06:52;25.2;48.2
81031;SHT31;70513;51.984;5.648;2023-06-10T08:09:20;25.3;48.5
81031;SHT31;70513;51.984;5.648;2023-06-10T08:11:50;25.3;47.2
81031;SHT31;70513;51.984;5.648;2023-06-10T08:14:18;25.4;46.1
81031;SHT31;70513;51.984;5.648;2023-06-10T08:16:49;25.4;47.5
81031;SHT31;70513;51.984;5.648;2023-06-10T08:19:17;25.5;45.9
81031;SHT31;70513;51.984;5.648;2023-06-10T08:21:46;25.5;45.0
81031;SHT31;70513;51.984;5.648;2023-06-10T08:24:15;25.6;45.1
81031;SHT31;70513;51.984;5.648;2023-06-10T08:26:45;25.6;46.5
81031;SHT31;70513;51.984;5.648;2023-06-10T08:29:13;25.6;47.7
81031;SHT31;70513;51.984;5.648;2023-06-10T08:31:44;25.7;44.9
81031;SHT31;70513;51.984;5.648;2023-06-10T08:34:12;25.7;46.6
81031;SHT31;70513;51.984;5.648;2023-06-10T08:36:42;25.8;47.0
81031;SHT31;70513;51.984;5.648;2023-06-10T08:39:11;25.9;46.3
81031;SHT31;70513;51.984;5.648;2023-06-10T08:41:43;26.0;45.4
81031;SHT31;70513;51.984;5.648;2023-06-10T08:44:17;26.2;46.1
81031;SHT31;70513;51.984;5.648;2023-06-10T08:46:53;26.6;42.5
81031;SHT31;70513;51.984;5.648;2023-06-10T08:49:26;26.9;44.1
81031;SHT31;70513;51.984;5.648;2023-06-10T08:51:59;27.3;42.6
81031;SHT31;70513;51.984;5.648;2023-06-10T08:54:32;27.6;42.1
81031;SHT31;70513;51.984;5.648;2023-06-10T08:57:06;28.0;40.5
81031;SHT31;70513;51.984;5.648;2023-06-10T08:59:34;28.2;40.4
81031;SHT31;70513;51.984;5.648;2023-06-10T09:02:04;28.5;39.9
81031;SHT31;70513;51.984;5.648;2023-06-10T09:04:35;28.7;40.1
81031;SHT31;70513;51.984;5.648;2023-06-10T09:07:06;28.9;40.8
81031;SHT31;70513;51.984;5.648;2023-06-10T09:09:35;29.1;41.2
81031;SHT31;70513;51.984;5.648;2023-06-10T09:12:05;29.2;40.4
81031;SHT31;70513;51.984;5.648;2023-06-10T09:14:34;29.4;41.3
81031;SHT31;70513;51.984;5.648;2023-06-10T09:17:03;29.5;40.7
81031;SHT31;70513;51.984;5.648;2023-06-10T09:19:33;29.7;39.5
81031;SHT31;70513;51.984;5.648;2023-06-10T09:22:05;29.8;39.2
81031;SHT31;70513;51.984;5.648;2023-06-10T09:24:34;29.9;38.8
81031;SHT31;70513;51.984;5.648;2023-06-10T09:27:07;30.0;37.8
81031;SHT31;70513;51.984;5.648;2023-06-10T09:29:48;30.0;40.4
81031;SHT31;70513;51.984;5.648;2023-06-10T09:32:20;30.1;38.8
81031;SHT31;70513;51.984;5.648;2023-06-10T09:34:50;30.1;36.6
81031;SHT31;70513;51.984;5.648;2023-06-10T09:37:23;30.2;38.5
81031;SHT31;70513;51.984;5.648;2023-06-10T09:40:04;30.2;37.7
81031;SHT31;70513;51.984;5.648;2023-06-10T09:42:39;30.3;39.7
81031;SHT31;70513;51.984;5.648;2023-06-10T09:45:08;30.3;36.5
81031;SHT31;70513;51.984;5.648;2023-06-10T09:47:37;30.3;37.9
81031;SHT31;70513;51.984;5.648;2023-06-10T09:50:06;30.4;39.2
81031;SHT31;70513;51.984;5.648;2023-06-10T09:52:37;30.4;39.3
81031;SHT31;70513;51.984;5.648;2023-06-10T09:55:08;30.5;38.6
81031;SHT31;70513;51.984;5.648;2023-06-10T09:57:37;30.6;39.0
81031;SHT31;70513;51.984;5.648;2023-06-10T10:00:10;30.7;36.9
81031;SHT31;70513;51.984;5.648;2023-06-10T10:02:47;30.8;36.8
81031;SHT31;70513;51.984;5.648;2023-06-10T10:05:18;30.9;36.7
81031;SHT31;70513;51.984;5.648;2023-06-10T10:07:48;31.0;34.8
81031;SHT31;70513;51.984;5.648;2023-06-10T10:10:19;31.1;33.1
81031;SHT31;70513;51.984;5.648;2023-06-10T10:12:50;31.1;33.8
81031;SHT31;70513;51.984;5.648;2023-06-10T10:15:21;31.2;39.1
81031;SHT31;70513;51.984;5.648;2023-06-10T10:17:55;31.2;33.7
81031;SHT31;70513;51.984;5.648;2023-06-10T10:20:30;31.3;35.7
81031;SHT31;70513;51.984;5.648;2023-06-10T10:23:03;31.4;35.7
81031;SHT31;70513;51.984;5.648;2023-06-10T10:25:37;31.4;36.1
81031;SHT31;70513;51.984;5.648;2023-06-10T10:28:09;31.5;37.8
81031;SHT31;70513;51.984;5.648;2023-06-10T10:30:42;31.6;35.4
81031;SHT31;70513;51.984;5.648;2023-06-10T10:33:15;31.7;36.7
81031;SHT31;70513;51.984;5.648;2023-06-10T10:35:46;31.8;33.7
81031;SHT31;70513;51.984;5.648;2023-06-10T10:38:17;31.9;34.9
81031;SHT31;70513;51.984;5.648;2023-06-10T10:40:47;31.9;34.2
81031;SHT31;70513;51.984;5.648;2023-06-10T10:43:19;32.0;32.0
81031;SHT31;70513;51.984;5.648;2023-06-10T10:45:59;32.1;33.3
81031;SHT31;70513;51.984;5.648;2023-06-10T10:48:37;32.1;31.2
81031;SHT31;70513;51.984;5.648;2023-06-10T10:51:08;32.1;31.2
81031;SHT31;70513;51.984;5.648;2023-06-10T10:53:39;32.2;32.2
81031;SHT31;70513;51.984;5.648;2023-06-10T10:56:14;32.2;31.7
81031;SHT31;70513;51.984;5.648;2023-06-10T10:59:03;32.3;31.0
81031;SHT31;70513;51.984;5.648;2023-06-10T11:01:42;32.3;31.5
81031;SHT31;70513;51.984;5.648;2023-06-10T11:04:12;32.3;32.2
81031;SHT31;70513;51.984;5.648;2023-06-10T11:06:54;32.3;29.1
81031;SHT31;70513;51.984;5.648;2023-06-10T11:09:28;32.3;30.0
81031;SHT31;70513;51.984;5.648;2023-06-10T11:11:59;32.4;29.6
81031;SHT31;70513;51.984;5.648;2023-06-10T11:14:30;32.4;30.9
81031;SHT31;70513;51.984;5.648;2023-06-10T11:17:00;32.4;30.4
81031;SHT31;70513;51.984;5.648;2023-06-10T11:19:35;32.4;31.0
81031;SHT31;70513;51.984;5.648;2023-06-10T11:22:07;32.5;30.1
81031;SHT31;70513;51.984;5.648;2023-06-10T11:24:37;32.5;29.2
81031;SHT31;70513;51.984;5.648;2023-06-10T11:27:20;32.6;29.9
81031;SHT31;70513;51.984;5.648;2023-06-10T11:30:22;32.6;30.0
81031;SHT31;70513;51.984;5.648;2023-06-10T11:32:54;32.7;28.2
81031;SHT31;70513;51.984;5.648;2023-06-10T11:35:27;32.7;28.7
81031;SHT31;70513;51.984;5.648;2023-06-10T11:37:56;32.8;28.0
81031;SHT31;70513;51.984;5.648;2023-06-10T11:40:26;32.8;28.9
81031;SHT31;70513;51.984;5.648;2023-06-10T11:42:58;32.8;27.4
81031;SHT31;70513;51.984;5.648;2023-06-10T11:45:27;32.8;30.2
81031;SHT31;70513;51.984;5.648;2023-06-10T11:48:00;32.9;27.8
81031;SHT31;70513;51.984;5.648;2023-06-10T11:50:30;32.9;28.1
81031;SHT31;70513;51.984;5.648;2023-06-10T11:52:59;33.0;28.8
81031;SHT31;70513;51.984;5.648;2023-06-10T11:55:43;33.0;28.5
81031;SHT31;70513;51.984;5.648;2023-06-10T11:58:17;33.0;28.7
81031;SHT31;70513;51.984;5.648;2023-06-10T12:00:46;33.1;28.3
81031;SHT31;70513;51.984;5.648;2023-06-10T12:03:15;33.1;28.5
81031;SHT31;70513;51.984;5.648;2023-06-10T12:05:57;33.2;28.8
81031;SHT31;70513;51.984;5.648;2023-06-10T12:08:27;33.2;28.0
81031;SHT31;70513;51.984;5.648;2023-06-10T12:10:57;33.2;27.8
81031;SHT31;70513;51.984;5.648;2023-06-10T12:13:27;33.3;27.8
81031;SHT31;70513;51.984;5.648;2023-06-10T12:16:08;33.3;27.4
81031;SHT31;70513;51.984;5.648;2023-06-10T12:18:38;33.3;28.0
81031;SHT31;70513;51.984;5.648;2023-06-10T12:21:17;33.4;26.6
81031;SHT31;70513;51.984;5.648;2023-06-10T12:24:02;33.4;28.0
81031;SHT31;70513;51.984;5.648;2023-06-10T12:26:39;33.4;27.7
81031;SHT31;70513;51.984;5.648;2023-06-10T12:29:17;33.4;28.4
81031;SHT31;70513;51.984;5.648;2023-06-10T12:31:57;33.5;28.6
81031;SHT31;70513;51.984;5.648;2023-06-10T12:34:35;33.6;27.7
81031;SHT31;70513;51.984;5.648;2023-06-10T12:37:05;33.7;26.5
81031;SHT31;70513;51.984;5.648;2023-06-10T12:39:34;33.8;27.4
81031;SHT31;70513;51.984;5.648;2023-06-10T12:42:04;33.9;27.2
81031;SHT31;70513;51.984;5.648;2023-06-10T12:44:39;34.1;27.7
81031;SHT31;70513;51.984;5.648;2023-06-10T12:47:10;34.2;26.8
81031;SHT31;70513;51.984;5.648;2023-06-10T12:49:40;34.3;26.9
81031;SHT31;70513;51.984;5.648;2023-06-10T12:52:08;34.4;26.4
81031;SHT31;70513;51.984;5.648;2023-06-10T12:54:39;34.5;27.2
81031;SHT31;70513;51.984;5.648;2023-06-10T12:57:10;34.6;28.9
81031;SHT31;70513;51.984;5.648;2023-06-10T12:59:39;34.7;28.4
81031;SHT31;70513;51.984;5.648;2023-06-10T13:02:10;34.8;26.2
81031;SHT31;70513;51.984;5.648;2023-06-10T13:04:39;34.8;25.6
81031;SHT31;70513;51.984;5.648;2023-06-10T13:07:09;34.8;26.0
81031;SHT31;70513;51.984;5.648;2023-06-10T13:09:38;34.9;25.7
81031;SHT31;70513;51.984;5.648;2023-06-10T13:12:08;34.9;25.3
81031;SHT31;70513;51.984;5.648;2023-06-10T13:14:37;34.8;26.3
81031;SHT31;70513;51.984;5.648;2023-06-10T13:17:06;34.8;26.4
81031;SHT31;70513;51.984;5.648;2023-06-10T13:19:37;34.8;26.2
81031;SHT31;70513;51.984;5.648;2023-06-10T13:22:07;34.8;26.2
81031;SHT31;70513;51.984;5.648;2023-06-10T13:24:39;34.7;25.9
81031;SHT31;70513;51.984;5.648;2023-06-10T13:27:10;34.7;26.2
81031;SHT31;70513;51.984;5.648;2023-06-10T13:29:40;34.6;25.5
81031;SHT31;70513;51.984;5.648;2023-06-10T13:32:09;34.6;26.6
81031;SHT31;70513;51.984;5.648;2023-06-10T13:34:38;34.6;26.6
81031;SHT31;70513;51.984;5.648;2023-06-10T13:37:07;34.5;26.4
81031;SHT31;70513;51.984;5.648;2023-06-10T13:39:35;34.5;26.9
81031;SHT31;70513;51.984;5.648;2023-06-10T13:42:04;34.4;26.3
81031;SHT31;70513;51.984;5.648;2023-06-10T13:44:34;34.4;26.6
81031;SHT31;70513;51.984;5.648;2023-06-10T13:47:03;34.4;25.7
81031;SHT31;70513;51.984;5.648;2023-06-10T13:49:33;34.3;25.9
81031;SHT31;70513;51.984;5.648;2023-06-10T13:52:02;34.3;27.2
81031;SHT31;70513;51.984;5.648;2023-06-10T13:54:31;34.3;26.5
81031;SHT31;70513;51.984;5.648;2023-06-10T13:57:00;34.2;27.8
81031;SHT31;70513;51.984;5.648;2023-06-10T13:59:28;34.2;27.0
81031;SHT31;70513;51.984;5.648;2023-06-10T14:01:57;34.2;25.6
81031;SHT31;70513;51.984;5.648;2023-06-10T14:04:26;34.2;24.9
81031;SHT31;70513;51.984;5.648;2023-06-10T14:06:55;34.1;25.1
81031;SHT31;70513;51.984;5.648;2023-06-10T14:09:25;34.0;25.6
81031;SHT31;70513;51.984;5.648;2023-06-10T14:11:53;34.0;26.7
81031;SHT31;70513;51.984;5.648;2023-06-10T14:14:22;33.9;26.7
81031;SHT31;70513;51.984;5.648;2023-06-10T14:16:51;33.9;26.9
81031;SHT31;70513;51.984;5.648;2023-06-10T14:19:20;33.9;27.0
81031;SHT31;70513;51.984;5.648;2023-06-10T14:21:49;33.8;26.1
81031;SHT31;70513;51.984;5.648;2023-06-10T14:24:19;33.8;25.9
81031;SHT31;70513;51.984;5.648;2023-06-10T14:26:48;33.8;26.1
81031;SHT31;70513;51.984;5.648;2023-06-10T14:29:18;33.8;24.8
81031;SHT31;70513;51.984;5.648;2023-06-10T14:31:47;33.8;26.0
81031;SHT31;70513;51.984;5.648;2023-06-10T14:34:15;33.8;27.1
81031;SHT31;70513;51.984;5.648;2023-06-10T14:36:46;33.7;26.9
81031;SHT31;70513;51.984;5.648;2023-06-10T14:39:16;33.7;27.9
81031;SHT31;70513;51.984;5.648;2023-06-10T14:41:45;33.7;25.8
81031;SHT31;70513;51.984;5.648;2023-06-10T14:44:13;33.7;25.1
81031;SHT31;70513;51.984;5.648;2023-06-10T14:46:42;33.6;25.1
81031;SHT31;70513;51.984;5.648;2023-06-10T14:49:12;33.6;24.7
81031;SHT31;70513;51.984;5.648;2023-06-10T14:51:41;33.5;25.1
81031;SHT31;70513;51.984;5.648;2023-06-10T14:54:11;33.4;25.2
81031;SHT31;70513;51.984;5.648;2023-06-10T14:56:39;33.3;26.2
81031;SHT31;70513;51.984;5.648;2023-06-10T14:59:08;33.2;26.1
81031;SHT31;70513;51.984;5.648;2023-06-10T15:01:36;33.1;27.0
81031;SHT31;70513;51.984;5.648;2023-06-10T15:04:05;33.1;26.9
81031;SHT31;70513;51.984;5.648;2023-06-10T15:06:34;33.0;26.9
81031;SHT31;70513;51.984;5.648;2023-06-10T15:09:02;33.0;27.8
81031;SHT31;70513;51.984;5.648;2023-06-10T15:11:31;33.0;26.1
81031;SHT31;70513;51.984;5.648;2023-06-10T15:14:00;32.9;26.9
81031;SHT31;70513;51.984;5.648;2023-06-10T15:16:28;32.9;27.6
81031;SHT31;70513;51.984;5.648;2023-06-10T15:18:57;32.8;26.8
81031;SHT31;70513;51.984;5.648;2023-06-10T15:21:26;32.8;27.4
81031;SHT31;70513;51.984;5.648;2023-06-10T15:23:54;32.8;27.4
81031;SHT31;70513;51.984;5.648;2023-06-10T15:26:23;32.7;28.2
81031;SHT31;70513;51.984;5.648;2023-06-10T15:28:51;32.7;26.1
81031;SHT31;70513;51.984;5.648;2023-06-10T15:31:20;32.6;28.2
81031;SHT31;70513;51.984;5.648;2023-06-10T15:33:51;32.6;28.5
81031;SHT31;70513;51.984;5.648;2023-06-10T15:36:19;32.5;27.6
81031;SHT31;70513;51.984;5.648;2023-06-10T15:38:48;32.5;27.4
81031;SHT31;70513;51.984;5.648;2023-06-10T15:41:16;32.5;27.6
81031;SHT31;70513;51.984;5.648;2023-06-10T15:43:45;32.4;27.6
81031;SHT31;70513;51.984;5.648;2023-06-10T15:46:14;32.4;28.3
81031;SHT31;70513;51.984;5.648;2023-06-10T15:48:42;32.4;28.3
81031;SHT31;70513;51.984;5.648;2023-06-10T15:51:11;32.3;28.1
81031;SHT31;70513;51.984;5.648;2023-06-10T15:53:40;32.3;28.1
81031;SHT31;70513;51.984;5.648;2023-06-10T15:56:08;32.3;28.6
81031;SHT31;70513;51.984;5.648;2023-06-10T15:58:37;32.2;28.4
81031;SHT31;70513;51.984;5.648;2023-06-10T16:01:05;32.2;28.1
81031;SHT31;70513;51.984;5.648;2023-06-10T16:03:35;32.2;28.4
81031;SHT31;70513;51.984;5.648;2023-06-10T16:06:07;32.2;28.5
81031;SHT31;70513;51.984;5.648;2023-06-10T16:08:36;32.2;28.8
81031;SHT31;70513;51.984;5.648;2023-06-10T16:11:05;32.1;28.7
81031;SHT31;70513;51.984;5.648;2023-06-10T16:13:34;32.1;28.9
81031;SHT31;70513;51.984;5.648;2023-06-10T16:16:03;32.1;29.7
81031;SHT31;70513;51.984;5.648;2023-06-10T16:18:32;32.1;28.7
81031;SHT31;70513;51.984;5.648;2023-06-10T16:21:01;32.0;28.9